Archival Weather

Chicago O'Hare International

Chicago, Illinois (KORD)

Report from: Friday, March 30, 2012 11:51 AM CDT
Current time: Monday, June 17, 2024 5:23 AM CDT

Current weather – Weather history – Daily summaries
Weather forecast

Temperature10.0°C (50.0°F)
Wind chill8.0°C (46.3°F)
Dew point7.2°C (45.0°F)
Winds 8 kts (4.1 m/s, 9.2 mph) Vrb
Wind gusts 18 kts (9.3 m/s, 20.7 mph)
Winds variableWinds variable from West-Northwest (300°) to Northeast (40°)
Visibility7 mi. (11.3 km)
Clouds Ceiling: Overcast 1,100 ft. (335 m)
Altimeter29.73 in.Hg (1007 mB)
Relative humidity83 %
Density altitude-236 ft. (-72 m)
Sea-level pressure100.7 kPa (1007 mB, 29.73 in.Hg)
Remarks Automated weather observing station with precipitation discriminator
Flight conditions Marginal Visual Meteorological Conditions
Raw data2012-03-30 16:51 KORD 301651Z 36008G18KT 300V040 7SM OVC011 10/07 A2973 RMK AO2 SLP069 T01000072
An error has occurred. This application may no longer respond until reloaded. Reload 🗙